Time;durP1;ratioP1;P1;durP2;ratioP2;P2;SDS_P1;SDS_P2;PMS_P1;PMS_P2;Temp;Humidity;BMP_temperature;BMP_pressure;BME280_temperature;BME280_humidity;BME280_pressure;Samples;Min_cycle;Max_cycle;Signal;HPM_P1;HPM_P2
2023/12/22 00:01:03;;;;;;;563.60;306.35;;;;;;;9.16;100.00;96200.56;4999328;28;20111;-53
2023/12/22 00:03:29;;;;;;;505.67;189.32;;;;;;;8.43;100.00;96221.31;5001402;28;20044;-53
2023/12/22 00:05:54;;;;;;;599.33;321.55;;;;;;;8.46;100.00;96230.75;4999266;28;20042;-54
2023/12/22 00:08:19;;;;;;;568.97;233.27;;;;;;;8.31;100.00;96229.34;5001575;28;20037;-53
2023/12/22 00:10:45;;;;;;;550.50;187.98;;;;;;;8.13;100.00;96248.75;4998507;28;20256;-53
2023/12/22 00:13:10;;;;;;;598.53;313.70;;;;;;;7.74;100.00;96241.78;5001403;28;20058;-57
2023/12/22 00:15:35;;;;;;;576.83;300.25;;;;;;;8.42;100.00;96242.94;5000990;28;20045;-54
2023/12/22 00:18:01;;;;;;;443.98;172.15;;;;;;;7.85;100.00;96251.91;5002479;28;20387;-56
2023/12/22 00:20:26;;;;;;;555.20;217.98;;;;;;;7.37;100.00;96264.03;5002897;28;20116;-55
2023/12/22 00:22:51;;;;;;;550.60;161.02;;;;;;;7.32;100.00;96269.31;5001078;28;20113;-53
2023/12/22 00:25:17;;;;;;;457.60;169.63;;;;;;;8.04;100.00;96258.44;4994714;28;20022;-54
2023/12/22 00:27:42;;;;;;;623.80;323.10;;;;;;;7.45;100.00;96261.34;4999824;28;20412;-53
2023/12/22 00:30:08;;;;;;;529.13;170.80;;;;;;;7.77;100.00;96265.03;4998302;28;20026;-53
2023/12/22 00:32:33;;;;;;;480.33;170.55;;;;;;;8.20;100.00;96264.13;5000127;28;20072;-54
2023/12/22 00:34:59;;;;;;;492.25;269.13;;;;;;;8.52;100.00;96255.66;5000535;28;20041;-54
2023/12/22 00:37:24;;;;;;;479.83;163.40;;;;;;;7.92;100.00;96251.78;4999685;28;20041;-54
2023/12/22 00:39:49;;;;;;;467.58;165.90;;;;;;;8.02;100.00;96249.81;4998908;28;20065;-53
2023/12/22 00:42:15;;;;;;;436.42;150.55;;;;;;;7.52;100.00;96255.16;5002471;28;20553;-55
2023/12/22 00:44:40;;;;;;;521.95;164.43;;;;;;;7.65;100.00;96253.19;4999521;28;20113;-53
2023/12/22 00:47:05;;;;;;;489.42;322.80;;;;;;;7.67;100.00;96267.78;5001387;28;20030;-53
2023/12/22 00:49:31;;;;;;;433.98;177.43;;;;;;;7.60;100.00;96270.50;5000376;28;20025;-53
2023/12/22 00:51:56;;;;;;;494.58;336.35;;;;;;;7.43;100.00;96275.13;4999695;28;20133;-54
2023/12/22 00:54:21;;;;;;;465.38;223.32;;;;;;;7.82;100.00;96276.13;4998728;28;20025;-53
2023/12/22 00:56:47;;;;;;;517.70;278.65;;;;;;;8.64;100.00;96276.16;5000504;28;20549;-55
2023/12/22 00:59:12;;;;;;;485.38;166.10;;;;;;;7.55;100.00;96268.03;4998539;28;20042;-54
2023/12/22 01:01:37;;;;;;;467.88;237.35;;;;;;;7.63;100.00;96280.81;5000603;28;20509;-54
2023/12/22 01:04:03;;;;;;;469.05;290.60;;;;;;;8.56;100.00;96285.81;4998277;28;20030;-54
2023/12/22 01:06:28;;;;;;;483.45;234.75;;;;;;;8.38;100.00;96274.13;4996194;28;20117;-54
2023/12/22 01:08:53;;;;;;;544.88;233.00;;;;;;;7.65;100.00;96266.97;5000182;28;20028;-53
2023/12/22 01:11:19;;;;;;;410.02;184.02;;;;;;;8.13;100.00;96280.66;4999825;28;20409;-53
2023/12/22 01:13:44;;;;;;;543.30;239.07;;;;;;;7.77;100.00;96267.59;4998786;28;20017;-53
2023/12/22 01:16:10;;;;;;;459.15;198.77;;;;;;;7.58;100.00;96278.34;4999428;28;20040;-54
2023/12/22 01:18:35;;;;;;;436.45;176.43;;;;;;;8.02;100.00;96278.31;5001757;28;20026;-53
2023/12/22 01:21:01;;;;;;;486.02;264.90;;;;;;;8.08;100.00;96272.16;5000534;28;20052;-54
2023/12/22 01:23:26;;;;;;;553.58;356.33;;;;;;;8.93;100.00;96263.38;4998163;28;20545;-55
2023/12/22 01:25:52;;;;;;;572.05;216.27;;;;;;;8.36;100.00;96268.97;4998387;28;20142;-52
2023/12/22 01:28:17;;;;;;;509.85;259.77;;;;;;;8.11;100.00;96271.22;4999785;28;20025;-55
2023/12/22 01:30:42;;;;;;;544.55;173.63;;;;;;;7.49;100.00;96279.34;4999840;28;20299;-55
2023/12/22 01:33:08;;;;;;;479.38;203.43;;;;;;;7.77;100.00;96283.13;4997329;28;20041;-54
2023/12/22 01:35:33;;;;;;;504.30;220.30;;;;;;;7.74;100.00;96283.19;4996491;28;20433;-54
2023/12/22 01:37:59;;;;;;;496.20;162.68;;;;;;;9.04;100.00;96289.91;4998789;28;20028;-53
2023/12/22 01:40:24;;;;;;;472.98;182.98;;;;;;;8.89;100.00;96291.13;5000757;28;20363;-55
2023/12/22 01:42:49;;;;;;;552.10;191.68;;;;;;;8.81;100.00;96298.22;4996412;28;20121;-54
2023/12/22 01:45:15;;;;;;;512.47;220.15;;;;;;;8.03;100.00;96305.06;4996616;28;20040;-55
2023/12/22 01:47:41;;;;;;;591.00;326.92;;;;;;;8.59;100.00;96306.50;4998398;28;20024;-55
2023/12/22 01:50:10;;;;;;;558.50;240.10;;;;;;;9.02;100.00;96317.59;4997581;28;20017;-55
2023/12/22 01:52:36;;;;;;;559.00;341.77;;;;;;;9.02;100.00;96308.97;5000873;28;20450;-54
2023/12/22 01:55:02;;;;;;;488.38;210.57;;;;;;;8.26;100.00;96303.72;5001001;28;20033;-54
2023/12/22 01:57:28;;;;;;;561.38;317.27;;;;;;;8.43;100.00;96305.97;4999246;28;20033;-54
2023/12/22 01:59:54;;;;;;;563.15;243.52;;;;;;;8.25;100.00;96308.06;4995073;28;20046;-53
2023/12/22 02:02:19;;;;;;;441.55;239.85;;;;;;;8.08;100.00;96305.81;4999553;28;20115;-52
2023/12/22 02:04:45;;;;;;;577.67;274.63;;;;;;;7.21;100.00;96303.13;4996248;28;20075;-55
2023/12/22 02:07:11;;;;;;;471.30;280.30;;;;;;;8.55;100.00;96291.91;5000302;28;20064;-53
2023/12/22 02:09:37;;;;;;;472.52;268.08;;;;;;;8.91;100.00;96268.59;4998041;28;20063;-54
2023/12/22 02:12:03;;;;;;;457.95;181.98;;;;;;;9.02;100.00;96272.69;4996763;28;20105;-54
2023/12/22 02:14:28;;;;;;;470.13;250.07;;;;;;;8.46;100.00;96277.38;4998619;28;20581;-54
2023/12/22 02:17:14;;;;;;;443.13;181.82;;;;;;;9.02;100.00;96291.66;4999740;28;20046;-53
2023/12/22 02:19:43;;;;;;;474.33;208.18;;;;;;;8.41;100.00;96285.28;4997519;28;20200;-54
2023/12/22 02:22:09;;;;;;;402.33;244.32;;;;;;;9.18;100.00;96291.28;4999490;28;20132;-54
2023/12/22 02:24:34;;;;;;;458.48;171.25;;;;;;;8.82;100.00;96280.06;4998345;28;20018;-55
2023/12/22 02:27:21;;;;;;;426.58;203.13;;;;;;;8.30;100.00;96275.16;4996096;28;22159;-53
2023/12/22 02:29:51;;;;;;;613.65;295.60;;;;;;;7.76;100.00;96274.50;4996087;28;20025;-54
2023/12/22 02:32:24;;;;;;;412.35;155.68;;;;;;;8.30;100.00;96263.91;5002023;28;20041;-54
2023/12/22 02:34:53;;;;;;;543.35;184.35;;;;;;;7.72;100.00;96272.88;4995870;28;20046;-54
2023/12/22 02:37:21;;;;;;;514.88;266.05;;;;;;;7.57;100.00;96278.34;4999149;28;20653;-53
2023/12/22 02:39:47;;;;;;;541.47;169.45;;;;;;;8.03;100.00;96274.84;4996101;28;20033;-54
2023/12/22 02:42:13;;;;;;;523.88;270.92;;;;;;;8.79;100.00;96279.25;5001861;28;20346;-54
2023/12/22 02:44:39;;;;;;;533.40;186.50;;;;;;;8.11;100.00;96285.03;4999066;28;20034;-54
2023/12/22 02:47:04;;;;;;;507.38;245.57;;;;;;;8.43;100.00;96286.06;5000349;28;20021;-53
2023/12/22 02:49:29;;;;;;;484.90;263.77;;;;;;;8.36;100.00;96292.28;5000894;28;20013;-53
2023/12/22 02:51:54;;;;;;;562.53;185.55;;;;;;;8.10;100.00;96279.91;4996154;28;20129;-53
2023/12/22 02:54:20;;;;;;;433.42;169.23;;;;;;;7.90;100.00;96297.53;5001833;28;20264;-54
2023/12/22 02:56:46;;;;;;;539.15;251.40;;;;;;;8.15;100.00;96293.59;4999920;28;20076;-53
2023/12/22 02:59:12;;;;;;;514.42;203.82;;;;;;;7.46;100.00;96297.50;5003337;28;20035;-54
2023/12/22 03:01:37;;;;;;;461.27;229.98;;;;;;;7.72;100.00;96298.75;5002370;28;20053;-54
2023/12/22 03:04:02;;;;;;;423.38;189.27;;;;;;;7.15;100.00;96311.84;4999612;28;20069;-54
2023/12/22 03:06:28;;;;;;;418.75;168.70;;;;;;;7.51;100.00;96294.84;5001868;28;20038;-54
2023/12/22 03:08:53;;;;;;;523.28;320.65;;;;;;;7.78;100.00;96302.94;5001621;28;20029;-54
2023/12/22 03:11:19;;;;;;;354.45;141.52;;;;;;;8.73;100.00;96296.66;5001904;28;20203;-54
2023/12/22 03:13:44;;;;;;;484.60;251.00;;;;;;;8.73;100.00;96312.22;4998533;28;20117;-55
2023/12/22 03:16:09;;;;;;;413.58;181.48;;;;;;;8.26;100.00;96306.31;4999517;28;20104;-53
2023/12/22 03:18:38;;;;;;;411.00;179.40;;;;;;;7.97;100.00;96305.19;5002157;28;20030;-54
2023/12/22 03:21:03;;;;;;;393.25;167.00;;;;;;;9.16;100.00;96317.25;5002403;28;20643;-53
2023/12/22 03:23:29;;;;;;;416.23;178.07;;;;;;;8.35;100.00;96332.00;5001101;28;20553;-55
2023/12/22 03:25:54;;;;;;;485.42;135.20;;;;;;;8.72;100.00;96328.66;5003011;28;20160;-53
2023/12/22 03:28:19;;;;;;;406.13;150.48;;;;;;;8.24;100.00;96334.00;5002774;28;20030;-52
2023/12/22 03:30:45;;;;;;;420.65;185.70;;;;;;;7.50;100.00;96334.53;5013263;28;20038;-53
2023/12/22 03:33:10;;;;;;;427.38;219.00;;;;;;;7.46;100.00;96317.34;5004816;28;20112;-53
2023/12/22 03:35:35;;;;;;;399.25;134.20;;;;;;;7.74;100.00;96322.00;5002022;28;20576;-53
2023/12/22 03:38:01;;;;;;;496.67;212.25;;;;;;;8.41;100.00;96331.91;4998430;28;20109;-53
2023/12/22 03:40:26;;;;;;;464.38;274.70;;;;;;;8.38;100.00;96316.41;5003657;28;20429;-53
2023/12/22 03:42:51;;;;;;;515.50;181.85;;;;;;;7.98;100.00;96319.84;5005309;28;20112;-54
2023/12/22 03:45:17;;;;;;;456.05;270.38;;;;;;;7.84;100.00;96323.56;5005086;28;20041;-53
2023/12/22 03:47:42;;;;;;;412.30;171.75;;;;;;;8.12;100.00;96319.56;5003772;28;20022;-53
2023/12/22 03:50:08;;;;;;;412.15;159.30;;;;;;;8.03;100.00;96323.19;4998191;28;20770;-53
2023/12/22 03:52:33;;;;;;;451.70;249.45;;;;;;;8.73;100.00;96325.16;5006002;28;20990;-54
2023/12/22 03:54:59;;;;;;;547.15;239.52;;;;;;;7.81;100.00;96316.72;5002480;28;20065;-54
2023/12/22 03:57:24;;;;;;;421.98;197.98;;;;;;;7.58;100.00;96306.78;5004902;28;20030;-54
2023/12/22 03:59:49;;;;;;;423.25;144.18;;;;;;;8.00;100.00;96316.34;5005359;28;20037;-53
2023/12/22 04:02:15;;;;;;;437.50;233.65;;;;;;;8.45;100.00;96312.81;5004867;28;20564;-53
2023/12/22 04:04:40;;;;;;;454.85;231.48;;;;;;;9.10;100.00;96310.47;5005575;28;20043;-54
2023/12/22 04:07:05;;;;;;;420.55;192.63;;;;;;;8.23;100.00;96304.63;5004714;28;20038;-54
2023/12/22 04:09:31;;;;;;;475.08;275.45;;;;;;;7.98;100.00;96293.94;5002462;28;20024;-53
2023/12/22 04:11:56;;;;;;;555.28;340.75;;;;;;;8.42;100.00;96280.91;5002342;28;20070;-53
2023/12/22 04:14:22;;;;;;;436.65;202.80;;;;;;;8.57;100.00;96285.81;5003972;28;20044;-54
2023/12/22 04:16:47;;;;;;;452.85;256.75;;;;;;;9.27;100.00;96283.28;5001472;28;20445;-52
2023/12/22 04:19:13;;;;;;;527.20;352.20;;;;;;;8.46;100.00;96292.91;5002550;28;20038;-54
2023/12/22 04:21:38;;;;;;;458.25;222.65;;;;;;;7.68;100.00;96300.53;5003392;28;20064;-54
2023/12/22 04:24:04;;;;;;;522.63;256.70;;;;;;;7.56;100.00;96305.94;5003329;28;20654;-53
2023/12/22 04:26:29;;;;;;;444.85;234.73;;;;;;;8.13;100.00;96300.56;5003768;28;20126;-55
2023/12/22 04:28:55;;;;;;;574.70;323.88;;;;;;;8.04;100.00;96304.16;5000963;28;20026;-54
2023/12/22 04:31:20;;;;;;;497.05;319.35;;;;;;;8.04;100.00;96310.22;5003268;28;20045;-54
2023/12/22 04:33:45;;;;;;;448.38;165.27;;;;;;;7.80;100.00;96311.56;5001888;28;20023;-53
2023/12/22 04:36:11;;;;;;;427.02;228.70;;;;;;;8.19;100.00;96318.53;5002827;28;20044;-53
2023/12/22 04:38:36;;;;;;;465.20;262.92;;;;;;;8.42;100.00;96312.88;5004376;28;20029;-55
2023/12/22 04:41:01;;;;;;;587.75;248.00;;;;;;;8.49;100.00;96325.72;5002698;28;20052;-53
2023/12/22 04:43:27;;;;;;;468.23;300.65;;;;;;;8.18;100.00;96329.78;5004089;28;20064;-54
2023/12/22 04:45:52;;;;;;;535.28;200.18;;;;;;;7.58;100.00;96324.91;4999934;28;20041;-53
2023/12/22 04:48:18;;;;;;;485.23;209.50;;;;;;;7.88;100.00;96329.50;5001334;28;20033;-52
2023/12/22 04:50:43;;;;;;;477.05;288.77;;;;;;;8.58;100.00;96341.09;5002508;28;20046;-52
2023/12/22 04:53:08;;;;;;;519.53;346.42;;;;;;;8.41;100.00;96326.72;5000533;28;20494;-53
2023/12/22 04:55:34;;;;;;;558.78;322.15;;;;;;;8.03;100.00;96344.75;5002456;28;20049;-53
2023/12/22 04:57:59;;;;;;;613.40;369.70;;;;;;;9.43;100.00;96353.78;5001636;28;20026;-53
2023/12/22 05:00:25;;;;;;;477.75;356.90;;;;;;;9.65;100.00;96342.84;5001465;28;20266;-52
2023/12/22 05:02:50;;;;;;;503.67;221.70;;;;;;;8.43;100.00;96350.00;5001669;28;20038;-53
2023/12/22 05:05:15;;;;;;;452.95;285.55;;;;;;;8.30;100.00;96350.25;5001089;28;20095;-52
2023/12/22 05:07:41;;;;;;;441.15;192.18;;;;;;;7.50;100.00;96345.72;4999454;28;20026;-52
2023/12/22 05:10:07;;;;;;;630.97;330.50;;;;;;;8.31;100.00;96351.97;4996656;28;20018;-53
2023/12/22 05:12:32;;;;;;;447.88;266.67;;;;;;;7.82;100.00;96343.41;4999208;28;20042;-54
2023/12/22 05:14:57;;;;;;;418.65;153.85;;;;;;;7.39;100.00;96353.66;5000585;28;20026;-52
2023/12/22 05:17:23;;;;;;;449.77;223.38;;;;;;;7.55;100.00;96361.16;5001042;28;20311;-54
2023/12/22 05:19:48;;;;;;;386.02;175.85;;;;;;;7.52;100.00;96361.22;5002518;28;20057;-53
2023/12/22 05:22:13;;;;;;;377.45;183.30;;;;;;;7.06;100.00;96368.00;4998173;28;20137;-52
2023/12/22 05:24:39;;;;;;;414.52;156.18;;;;;;;7.14;100.00;96389.41;4998622;28;20054;-52
2023/12/22 05:27:04;;;;;;;483.67;170.23;;;;;;;8.46;100.00;96379.28;5003773;28;20327;-52
2023/12/22 05:29:30;;;;;;;405.25;186.93;;;;;;;8.26;100.00;96374.50;5002764;28;20026;-53
2023/12/22 05:31:55;;;;;;;536.10;182.65;;;;;;;7.44;100.00;96379.47;5000509;28;20041;-54
2023/12/22 05:34:20;;;;;;;411.02;181.40;;;;;;;7.94;100.00;96376.84;5000313;28;20071;-53
2023/12/22 05:36:46;;;;;;;421.55;164.10;;;;;;;7.74;100.00;96363.41;5001101;28;20033;-53
2023/12/22 05:39:11;;;;;;;550.38;313.20;;;;;;;9.00;100.00;96366.06;4999420;28;20026;-52
2023/12/22 05:41:37;;;;;;;392.13;153.30;;;;;;;7.82;100.00;96377.94;4998040;28;20447;-52
2023/12/22 05:44:05;;;;;;;436.17;161.80;;;;;;;7.73;100.00;96380.69;5002786;28;20037;-51
2023/12/22 05:46:30;;;;;;;487.17;276.23;;;;;;;7.28;100.00;96389.22;5002165;28;20042;-53
2023/12/22 05:48:59;;;;;;;458.63;203.90;;;;;;;7.92;100.00;96403.66;4998294;28;20107;-51
2023/12/22 05:51:24;;;;;;;439.75;233.00;;;;;;;8.21;100.00;96387.53;4999775;28;20120;-53
2023/12/22 05:53:53;;;;;;;445.63;182.60;;;;;;;7.91;100.00;96376.88;5001587;28;20433;-54
2023/12/22 05:56:20;;;;;;;453.25;214.25;;;;;;;7.76;100.00;96387.53;4999401;28;20108;-53
2023/12/22 05:58:45;;;;;;;464.25;272.73;;;;;;;8.19;100.00;96380.69;5002892;28;20022;-53
2023/12/22 06:01:18;;;;;;;586.03;246.93;;;;;;;8.42;100.00;96371.59;4992488;28;20046;-54
2023/12/22 06:03:44;;;;;;;440.77;285.25;;;;;;;9.22;100.00;96366.41;5002140;28;20059;-56
2023/12/22 06:06:09;;;;;;;540.30;224.60;;;;;;;9.42;100.00;96372.84;4995066;28;20068;-53
2023/12/22 06:08:34;;;;;;;452.85;255.75;;;;;;;8.94;100.00;96361.00;5003207;28;20065;-53
2023/12/22 06:11:00;;;;;;;469.23;146.95;;;;;;;8.51;100.00;96368.84;5000539;28;20056;-53
2023/12/22 06:13:25;;;;;;;445.83;221.45;;;;;;;7.97;100.00;96365.56;5001321;28;20029;-52
2023/12/22 06:15:50;;;;;;;396.08;151.68;;;;;;;8.63;100.00;96356.50;5003055;28;20261;-53
2023/12/22 06:18:16;;;;;;;431.15;193.20;;;;;;;8.02;100.00;96358.56;5003817;28;20033;-53
2023/12/22 06:20:41;;;;;;;460.85;215.63;;;;;;;7.06;100.00;96368.84;5002319;28;20105;-53
2023/12/22 06:23:06;;;;;;;501.08;256.23;;;;;;;6.95;100.00;96375.91;5004702;28;20285;-53
2023/12/22 06:25:32;;;;;;;408.23;186.95;;;;;;;8.23;100.00;96378.91;5006539;28;20092;-52
2023/12/22 06:27:57;;;;;;;506.95;224.30;;;;;;;6.81;100.00;96382.13;5001370;28;20595;-52
2023/12/22 06:30:23;;;;;;;405.23;204.80;;;;;;;6.28;100.00;96388.00;5003860;28;20419;-52
2023/12/22 06:32:49;;;;;;;416.38;190.20;;;;;;;6.88;100.00;96378.59;5002961;28;20049;-53
2023/12/22 06:35:14;;;;;;;442.80;201.70;;;;;;;6.95;100.00;96394.00;5002622;28;20050;-54
2023/12/22 06:37:39;;;;;;;449.98;217.63;;;;;;;7.53;100.00;96389.66;5005153;28;20022;-53
2023/12/22 06:40:05;;;;;;;527.58;152.88;;;;;;;7.54;100.00;96390.50;5003726;28;20193;-54
2023/12/22 06:42:31;;;;;;;430.38;197.00;;;;;;;6.87;100.00;96383.78;5004651;28;20050;-54
2023/12/22 06:44:56;;;;;;;414.10;194.07;;;;;;;6.74;100.00;96407.22;5003666;28;20466;-53
2023/12/22 06:47:21;;;;;;;386.65;155.18;;;;;;;7.60;100.00;96402.47;5003778;28;20128;-53
2023/12/22 06:49:47;;;;;;;484.35;282.13;;;;;;;7.67;100.00;96396.31;5003717;28;20033;-55
2023/12/22 06:52:12;;;;;;;459.48;191.80;;;;;;;7.31;100.00;96411.56;5004379;28;20045;-53
2023/12/22 06:54:37;;;;;;;439.52;195.20;;;;;;;6.79;100.00;96422.63;5003720;28;20026;-53
2023/12/22 06:57:03;;;;;;;572.38;234.68;;;;;;;8.14;100.00;96421.38;5001512;28;20044;-53
2023/12/22 06:59:28;;;;;;;421.60;176.15;;;;;;;7.47;100.00;96427.69;5006127;28;20018;-53
2023/12/22 07:01:55;;;;;;;468.35;262.08;;;;;;;6.39;100.00;96436.94;5004483;28;20523;-54
2023/12/22 07:04:20;;;;;;;396.48;136.25;;;;;;;6.40;100.00;96448.09;5003809;28;20018;-55
2023/12/22 07:06:47;;;;;;;438.80;212.73;;;;;;;6.51;100.00;96441.97;5000868;28;20038;-54
2023/12/22 07:09:19;;;;;;;544.47;192.52;;;;;;;6.57;100.00;96438.41;5003236;28;20105;-52
2023/12/22 07:11:48;;;;;;;463.88;219.63;;;;;;;6.88;100.00;96432.88;5005746;28;20050;-54
2023/12/22 07:14:15;;;;;;;484.15;155.98;;;;;;;6.72;100.00;96439.13;5000165;28;20117;-54
2023/12/22 07:16:41;;;;;;;411.42;162.20;;;;;;;6.52;100.00;96447.97;5004253;28;20038;-54
2023/12/22 07:19:07;;;;;;;570.17;158.48;;;;;;;6.18;100.00;96440.59;5001296;28;20024;-54
2023/12/22 07:21:33;;;;;;;413.75;144.70;;;;;;;6.84;100.00;96431.19;4999253;28;20038;-54
2023/12/22 07:23:58;;;;;;;366.60;156.82;;;;;;;7.06;100.00;96417.97;5005517;28;20041;-54
2023/12/22 07:26:26;;;;;;;458.38;224.73;;;;;;;7.39;100.00;96428.66;5002218;28;20053;-54
2023/12/22 07:28:52;;;;;;;436.30;221.98;;;;;;;7.16;100.00;96436.78;5003784;28;20398;-55
2023/12/22 07:31:17;;;;;;;430.17;215.45;;;;;;;7.45;100.00;96445.81;5000322;28;20628;-53
2023/12/22 07:33:43;;;;;;;442.88;217.88;;;;;;;7.39;100.00;96448.53;5001074;28;20026;-55
2023/12/22 07:36:08;;;;;;;477.42;182.45;;;;;;;7.08;100.00;96461.88;5001679;28;20087;-53
2023/12/22 07:38:33;;;;;;;398.30;173.60;;;;;;;7.52;100.00;96450.03;5004604;28;20111;-53
2023/12/22 07:40:59;;;;;;;487.95;263.77;;;;;;;8.06;100.00;96448.25;5000147;28;20049;-53
2023/12/22 07:43:25;;;;;;;423.08;237.00;;;;;;;8.25;100.00;96444.47;5004853;28;20470;-53
2023/12/22 07:45:51;;;;;;;464.25;291.35;;;;;;;7.82;100.00;96459.88;5001745;28;20116;-53
2023/12/22 07:48:19;;;;;;;584.20;261.98;;;;;;;8.54;100.00;96446.50;5000149;28;20532;-56
2023/12/22 07:50:45;;;;;;;419.13;184.85;;;;;;;7.95;100.00;96451.03;5000991;28;20414;-54
2023/12/22 07:53:11;;;;;;;581.33;349.13;;;;;;;9.49;100.00;96439.28;5000957;28;20038;-53
2023/12/22 07:55:38;;;;;;;443.58;202.68;;;;;;;9.71;100.00;96456.06;5002217;28;20052;-54
2023/12/22 07:58:04;;;;;;;541.33;253.77;;;;;;;8.46;100.00;96454.41;5004386;28;20131;-54
2023/12/22 08:00:29;;;;;;;429.85;165.00;;;;;;;8.18;100.00;96474.81;5001677;28;20124;-53
2023/12/22 08:02:54;;;;;;;425.63;218.43;;;;;;;8.25;100.00;96479.00;4996314;28;20064;-52
2023/12/22 08:05:19;;;;;;;453.20;277.67;;;;;;;8.84;100.00;96471.84;5003150;28;20033;-54
2023/12/22 08:07:45;;;;;;;423.77;312.65;;;;;;;8.91;100.00;96490.72;5006390;28;20530;-55
2023/12/22 08:10:11;;;;;;;589.35;237.10;;;;;;;8.05;100.00;96480.19;5001421;28;20026;-54
2023/12/22 08:12:36;;;;;;;371.58;154.98;;;;;;;7.54;100.00;96494.00;5008548;28;20025;-54
2023/12/22 08:15:01;;;;;;;405.20;280.80;;;;;;;7.84;100.00;96504.75;5005190;28;20366;-53
2023/12/22 08:17:27;;;;;;;397.45;201.93;;;;;;;9.36;100.00;96503.56;5006708;28;20408;-54
2023/12/22 08:19:53;;;;;;;315.00;144.15;;;;;;;8.80;100.00;96512.53;5003629;28;20343;-54
2023/12/22 08:22:18;;;;;;;514.90;223.73;;;;;;;8.56;100.00;96512.13;5004378;28;20064;-61
2023/12/22 08:24:44;;;;;;;443.30;263.25;;;;;;;8.25;100.00;96514.41;5008408;28;20076;-55
2023/12/22 08:27:09;;;;;;;434.17;181.45;;;;;;;7.74;100.00;96526.44;5002441;28;20517;-54
2023/12/22 08:29:34;;;;;;;346.83;178.98;;;;;;;8.24;100.00;96526.47;5003946;28;20255;-54
2023/12/22 08:32:00;;;;;;;392.77;162.75;;;;;;;8.20;100.00;96532.59;5003435;28;20041;-55
2023/12/22 08:34:26;;;;;;;374.38;189.65;;;;;;;7.75;100.00;96528.16;5007944;28;20037;-52
2023/12/22 08:36:52;;;;;;;420.17;257.88;;;;;;;7.60;100.00;96532.69;5006335;28;20046;-55
2023/12/22 08:39:17;;;;;;;578.30;219.27;;;;;;;8.18;100.00;96529.19;5003188;28;20045;-54
2023/12/22 08:41:43;;;;;;;659.00;213.88;;;;;;;8.51;100.00;96533.78;5000638;28;20045;-55
2023/12/22 08:44:08;;;;;;;418.95;167.00;;;;;;;8.19;100.00;96555.06;5003265;28;20038;-53
2023/12/22 08:46:34;;;;;;;460.95;248.43;;;;;;;8.43;100.00;96547.75;5005101;28;20480;-55
2023/12/22 08:48:59;;;;;;;351.45;172.95;;;;;;;8.77;100.00;96543.72;5006563;28;20025;-55
2023/12/22 08:51:28;;;;;;;402.45;208.27;;;;;;;8.53;100.00;96550.19;5005751;28;20378;-54
2023/12/22 08:53:56;;;;;;;400.73;202.13;;;;;;;8.30;100.00;96554.03;5007674;28;20307;-54
2023/12/22 08:56:23;;;;;;;394.65;208.15;;;;;;;8.18;100.00;96560.28;5002810;28;20052;-54
2023/12/22 08:58:51;;;;;;;416.30;221.00;;;;;;;8.34;100.00;96561.72;5001561;28;20037;-53
2023/12/22 09:01:17;;;;;;;558.42;259.70;;;;;;;7.86;100.00;96571.97;5002140;28;20115;-56
2023/12/22 09:03:45;;;;;;;398.00;197.40;;;;;;;9.01;100.00;96567.44;5003630;28;20068;-56
2023/12/22 09:06:18;;;;;;;512.80;262.38;;;;;;;9.58;100.00;96554.16;5004061;28;20030;-55
2023/12/22 09:08:44;;;;;;;396.80;166.88;;;;;;;9.05;100.00;96555.28;5002745;28;20040;-52
2023/12/22 09:11:15;;;;;;;566.38;273.08;;;;;;;8.66;100.00;96556.00;5002061;28;20128;-53
2023/12/22 09:13:41;;;;;;;419.90;215.48;;;;;;;8.64;100.00;96547.44;5003544;28;20521;-52
2023/12/22 09:16:07;;;;;;;413.23;158.88;;;;;;;9.72;100.00;96565.06;5002743;28;20100;-53
2023/12/22 09:18:32;;;;;;;397.30;153.80;;;;;;;9.13;100.00;96558.53;5006696;28;20033;-53
2023/12/22 09:20:58;;;;;;;440.42;195.43;;;;;;;8.91;100.00;96548.59;5002678;28;20057;-54
2023/12/22 09:23:24;;;;;;;400.10;224.48;;;;;;;8.78;100.00;96558.38;5002977;28;21891;-54
2023/12/22 09:25:49;;;;;;;398.52;165.20;;;;;;;8.81;100.00;96563.50;5002755;28;20069;-54
2023/12/22 09:28:15;;;;;;;431.08;157.73;;;;;;;8.50;100.00;96568.38;5000527;28;20034;-53
2023/12/22 09:30:41;;;;;;;393.77;154.75;;;;;;;8.27;100.00;96577.38;5003719;28;20459;-53
2023/12/22 09:33:07;;;;;;;437.55;180.07;;;;;;;8.01;100.00;96571.75;5003819;28;20052;-53
2023/12/22 09:35:35;;;;;;;378.27;172.60;;;;;;;7.26;100.00;96582.31;5002995;28;20037;-53
2023/12/22 09:38:00;;;;;;;360.73;156.85;;;;;;;7.16;100.00;96576.38;5006252;28;20628;-53
2023/12/22 09:40:26;;;;;;;441.95;167.98;;;;;;;7.01;100.00;96586.06;5001255;28;20028;-53
2023/12/22 09:42:54;;;;;;;395.65;177.60;;;;;;;7.04;100.00;96587.75;5004925;28;20064;-54
2023/12/22 09:45:21;;;;;;;525.03;181.77;;;;;;;7.26;100.00;96595.25;5003950;28;20045;-54
2023/12/22 09:47:48;;;;;;;412.83;169.02;;;;;;;7.21;100.00;96589.28;5003425;28;20033;-55
2023/12/22 09:50:15;;;;;;;524.83;167.18;;;;;;;7.60;100.00;96591.34;5002117;28;20119;-54
2023/12/22 09:52:43;;;;;;;376.65;168.70;;;;;;;7.52;100.00;96588.88;5003492;28;20037;-54
2023/12/22 09:55:09;;;;;;;451.85;217.70;;;;;;;6.83;100.00;96574.19;5002551;28;20545;-54
2023/12/22 09:57:37;;;;;;;390.00;204.95;;;;;;;6.86;100.00;96584.50;5004499;28;20408;-52
2023/12/22 10:00:09;;;;;;;399.23;204.40;;;;;;;7.68;100.00;96554.13;5004403;28;20215;-52
2023/12/22 10:02:58;;;;;;;163.93;91.47;;;;;;;7.24;100.00;96560.81;5047510;27;20958;-54
2023/12/22 10:05:24;;;;;;;249.77;130.27;;;;;;;6.87;100.00;96575.88;5037127;28;20564;-54
2023/12/22 10:07:50;;;;;;;135.85;67.57;;;;;;;6.14;100.00;96567.97;5010192;28;20033;-53
2023/12/22 10:10:17;;;;;;;151.25;13.93;;;;;;;6.04;100.00;96550.00;5005106;28;20041;-55
2023/12/22 10:12:44;;;;;;;104.68;41.92;;;;;;;6.24;100.00;96559.31;5009498;28;20257;-54
2023/12/22 10:15:12;;;;;;;75.10;31.60;;;;;;;5.93;100.00;96577.56;4988455;28;20493;-55
2023/12/22 10:17:39;;;;;;;109.38;46.03;;;;;;;6.10;100.00;96572.31;5008273;28;20014;-56
2023/12/22 10:20:05;;;;;;;78.68;10.75;;;;;;;6.24;100.00;96569.63;5007038;28;20413;-55
2023/12/22 10:22:30;;;;;;;107.97;54.50;;;;;;;5.82;100.00;96563.03;5003623;28;20041;-55
2023/12/22 10:24:55;;;;;;;114.40;43.60;;;;;;;5.80;100.00;96559.63;5010297;28;20397;-55
2023/12/22 10:27:23;;;;;;;167.15;48.35;;;;;;;5.67;100.00;96558.84;5004431;28;20435;-53
2023/12/22 10:29:50;;;;;;;100.97;25.75;;;;;;;5.64;100.00;96558.84;5008001;28;20029;-54
2023/12/22 10:32:16;;;;;;;222.27;92.20;;;;;;;5.39;100.00;96571.94;5004694;28;20037;-57
2023/12/22 10:34:41;;;;;;;188.63;127.22;;;;;;;5.57;100.00;96558.03;5007218;28;20041;-54
2023/12/22 10:37:07;;;;;;;113.78;81.53;;;;;;;6.82;100.00;96562.16;5007613;28;20034;-55
2023/12/22 10:39:32;;;;;;;67.63;37.60;;;;;;;6.84;100.00;96541.47;5004161;28;20034;-55
2023/12/22 10:41:59;;;;;;;65.95;7.68;;;;;;;6.81;100.00;96534.59;5005797;28;20521;-58
2023/12/22 10:44:25;;;;;;;111.63;8.85;;;;;;;6.93;100.00;96549.09;5004570;28;20040;-55
2023/12/22 10:46:52;;;;;;;82.90;11.43;;;;;;;6.86;100.00;96525.06;5006356;28;20056;-55
2023/12/22 10:49:18;;;;;;;174.85;26.80;;;;;;;6.93;100.00;96527.56;5006003;28;20041;-55
2023/12/22 10:51:44;;;;;;;123.88;55.58;;;;;;;6.77;100.00;96530.34;5005469;28;20041;-55
2023/12/22 10:54:09;;;;;;;114.22;19.10;;;;;;;7.20;100.00;96525.50;4990208;28;20092;-55
2023/12/22 10:56:34;;;;;;;152.02;90.57;;;;;;;6.91;100.00;96522.44;5004479;28;20088;-55